Terminal Aerodrome Forecast
Issued by NWS

Home | Current Version | Previous Version | Text Only | Print | Product List | Glossary On
Versions: 1 2 3 4 5 6 7 8 9 10 11 12 13 14 15 16 17
000
FTUS43 KGRR 020500
TAFJXN
TAF
KJXN 020540Z 0206/0306 26008KT P6SM OVC020
     FM020800 28010KT P6SM BKN035
     FM021800 26007KT P6SM SCT035
     FM022000 26006KT P6SM SCT035=

USA.gov is the U.S. government's official web portal to all federal, state and local government web resources and services.